Ana Sayfa
METAR-TAF:

METAR-TAF

Havaalanları :

Etimesgut Havalimanı

Ankara Etimesgut, Türkiye

Enlem: 39-57N, Boylam: 032-41E, yükseklik: 799 m

METAR: eksik

Saat: 06:21 (03:21 UTC)

Tahmin

Rapor saat 01:40 UTC de 1 saat ve 41 dakika önce yapıldı.
Ayın 22'si saat 03 UTC'den ayın 22'si saat 12 UTC'ye kadar geçerli Tahmin
Rüzgar kuzey/kuzeydoğudan 8 kt
Görüş mesafesi 10 km veya daha fazla
4000 ft yükseklikte parçalı bulutlu

TAF: LTAD 220140Z 2203/2212 03008KT 9999 SCT040

4.000'den fazla havaalanı için hava durumu gözlemleri ve tahminleri (METAR ve TAF raporları).

Kullanılabilir istasyonlar harita üzerinde sarı ve kırmızı noktalarla gösterilir.

İstasyonun adını görmek için fareyi noktanın üzerinde gezdirin.

Sonrasında hava gözlem ve tahminlerini görmek için tıklayın.

Haritayı değiştirmek için: yaklaştırmak için siyah artı işaretli yeşil düğmeye ve uzaklaştırmak için de eksi işaretli düğmeye hızla tıklayın; bitişik haritalar için yeşil okları kullanın.


METAR-TAF: